createdAt,value
2022-11-13T00:00:00.715Z,10.00
2022-11-13T00:02:47.957Z,10.00
2022-11-13T00:05:36.067Z,10.00
2022-11-13T00:08:22.619Z,9.90
2022-11-13T00:11:12.424Z,10.00
2022-11-13T00:13:59.395Z,10.00
2022-11-13T00:16:45.989Z,10.00
2022-11-13T00:19:32.903Z,10.00
2022-11-13T00:22:21.266Z,10.00
2022-11-13T00:25:08.528Z,10.00
2022-11-13T00:27:55.334Z,10.10
2022-11-13T00:30:42.325Z,10.00
2022-11-13T00:33:54.867Z,10.00
2022-11-13T00:36:35.792Z,10.10
2022-11-13T00:39:24.222Z,10.10
2022-11-13T00:42:11.029Z,10.10
2022-11-13T00:44:58.085Z,10.20
2022-11-13T00:47:44.849Z,10.20
2022-11-13T00:50:32.934Z,10.10
2022-11-13T00:53:19.667Z,10.10
2022-11-13T00:56:08.171Z,10.10
2022-11-13T00:58:54.684Z,10.10
2022-11-13T01:01:41.553Z,10.00
2022-11-13T01:04:30.231Z,10.00
2022-11-13T01:07:16.819Z,10.00
2022-11-13T01:10:03.638Z,10.00
2022-11-13T01:12:51.643Z,10.00
2022-11-13T01:15:40.073Z,10.10
2022-11-13T01:18:26.957Z,10.00
2022-11-13T01:21:16.589Z,10.00
2022-11-13T01:24:03.421Z,10.10
2022-11-13T01:26:50.443Z,10.20
2022-11-13T01:29:40.046Z,10.20
2022-11-13T01:32:26.731Z,10.20
2022-11-13T01:35:13.620Z,10.20
2022-11-13T01:38:00.306Z,10.20
2022-11-13T01:40:47.287Z,10.20
2022-11-13T01:43:37.079Z,10.20
2022-11-13T01:46:28.402Z,10.30
2022-11-13T01:49:28.519Z,10.20
2022-11-13T01:52:18.834Z,10.20
2022-11-13T01:55:09.929Z,10.20
2022-11-13T01:57:57.551Z,10.20
2022-11-13T02:00:44.263Z,10.20
2022-11-13T02:03:32.642Z,10.20
2022-11-13T02:06:21.494Z,10.20
2022-11-13T02:09:08.710Z,10.10
2022-11-13T02:11:56.035Z,10.10
2022-11-13T02:14:46.647Z,10.20
2022-11-13T02:17:38.582Z,10.20
2022-11-13T02:20:33.399Z,10.10
2022-11-13T02:23:29.368Z,10.10
2022-11-13T02:26:20.980Z,10.20
2022-11-13T02:29:07.995Z,10.30
2022-11-13T02:31:54.909Z,10.20
2022-11-13T02:34:41.586Z,10.20
2022-11-13T02:37:28.488Z,10.20
2022-11-13T02:40:16.619Z,10.20
2022-11-13T02:43:04.738Z,10.20
2022-11-13T02:45:51.446Z,10.20
2022-11-13T02:48:38.294Z,10.20
2022-11-13T02:51:25.342Z,10.20
2022-11-13T02:54:16.504Z,10.20
2022-11-13T02:57:03.831Z,10.20
2022-11-13T02:59:52.266Z,10.20
2022-11-13T03:02:38.837Z,10.20
2022-11-13T03:05:25.817Z,10.20
2022-11-13T03:08:12.617Z,10.20
2022-11-13T03:10:59.947Z,10.20
2022-11-13T03:13:46.736Z,10.30
2022-11-13T03:16:36.575Z,10.30
2022-11-13T03:19:23.394Z,10.20
2022-11-13T03:22:10.159Z,10.20
2022-11-13T03:24:57.357Z,10.10
2022-11-13T03:27:43.928Z,10.10
2022-11-13T03:30:31.156Z,10.10
2022-11-13T03:33:19.235Z,10.10
2022-11-13T03:36:06.762Z,10.10
2022-11-13T03:38:53.777Z,10.10
2022-11-13T03:41:40.561Z,10.00
2022-11-13T03:44:27.421Z,10.10
2022-11-13T03:47:14.578Z,10.10
2022-11-13T03:50:02.531Z,10.10
2022-11-13T03:52:49.331Z,10.10
2022-11-13T03:55:36.251Z,10.20
2022-11-13T03:58:23.236Z,10.20
2022-11-13T04:01:10.263Z,10.20
2022-11-13T04:03:56.866Z,10.20
2022-11-13T04:06:44.978Z,10.30
2022-11-13T04:09:31.711Z,10.20
2022-11-13T04:12:18.573Z,10.20
2022-11-13T04:15:06.361Z,10.30
2022-11-13T04:17:53.265Z,10.30
2022-11-13T04:20:40.238Z,10.30
2022-11-13T04:23:28.269Z,10.20
2022-11-13T04:26:14.961Z,10.20
2022-11-13T04:29:01.668Z,10.10
2022-11-13T04:31:48.552Z,10.10
2022-11-13T04:34:35.321Z,10.00
2022-11-13T04:37:22.171Z,10.00
2022-11-13T04:40:12.207Z,10.10
2022-11-13T04:42:57.872Z,10.10
2022-11-13T04:45:44.757Z,10.10
2022-11-13T04:48:31.737Z,10.10
2022-11-13T04:51:19.078Z,10.10
2022-11-13T04:54:05.774Z,10.10
2022-11-13T04:56:53.856Z,10.10
2022-11-13T04:59:40.632Z,10.10
2022-11-13T05:02:27.444Z,10.00
2022-11-13T05:05:14.548Z,10.00
2022-11-13T05:08:01.228Z,10.00
2022-11-13T05:10:48.267Z,10.00
2022-11-13T05:13:37.710Z,10.00
2022-11-13T05:16:24.535Z,10.10
2022-11-13T05:19:11.472Z,10.10
2022-11-13T05:21:58.251Z,10.00
2022-11-13T05:24:45.002Z,10.00
2022-11-13T05:27:32.021Z,10.00
2022-11-13T05:30:20.219Z,10.00
2022-11-13T05:33:07.062Z,10.00
2022-11-13T05:35:53.890Z,10.00
2022-11-13T05:38:41.219Z,10.00
2022-11-13T05:41:28.231Z,10.10
2022-11-13T05:44:15.191Z,10.10
2022-11-13T05:47:03.493Z,10.10
2022-11-13T05:49:49.922Z,10.10
2022-11-13T05:52:36.702Z,10.10
2022-11-13T05:55:23.802Z,10.20
2022-11-13T05:58:11.779Z,10.20
2022-11-13T06:01:07.479Z,10.20
2022-11-13T06:03:56.838Z,10.20
2022-11-13T06:06:43.885Z,10.10
2022-11-13T06:09:30.755Z,10.10
2022-11-13T06:12:17.602Z,10.10
2022-11-13T06:15:04.640Z,10.10
2022-11-13T06:17:51.449Z,10.10
2022-11-13T06:20:40.000Z,10.10
2022-11-13T06:23:26.925Z,10.10
2022-11-13T06:26:16.771Z,10.10
2022-11-13T06:29:05.131Z,10.20
2022-11-13T06:31:52.066Z,10.20
2022-11-13T06:34:38.943Z,10.10
2022-11-13T06:37:28.787Z,10.10
2022-11-13T06:40:18.253Z,10.10
2022-11-13T06:43:05.066Z,10.10
2022-11-13T06:45:51.708Z,10.10
2022-11-13T06:48:38.591Z,10.10
2022-11-13T06:51:26.633Z,10.10
2022-11-13T06:54:14.499Z,10.20
2022-11-13T06:57:01.269Z,10.20
2022-11-13T06:59:48.063Z,10.20
2022-11-13T07:02:34.939Z,10.10
2022-11-13T07:05:21.714Z,10.20
2022-11-13T07:08:08.452Z,10.20
2022-11-13T07:10:58.070Z,10.20
2022-11-13T07:13:45.182Z,10.10
2022-11-13T07:16:56.149Z,10.00
2022-11-13T07:19:38.354Z,10.10
2022-11-13T07:22:25.433Z,10.10
2022-11-13T07:25:12.456Z,10.20
2022-11-13T07:28:00.754Z,10.10
2022-11-13T07:30:47.782Z,10.20
2022-11-13T07:33:35.316Z,10.10
2022-11-13T07:36:21.970Z,10.10
2022-11-13T07:39:08.914Z,10.00
2022-11-13T07:41:55.797Z,10.10
2022-11-13T07:44:59.397Z,10.10
2022-11-13T07:47:48.371Z,10.10
2022-11-13T07:50:37.602Z,10.10
2022-11-13T07:53:24.460Z,10.10
2022-11-13T07:56:11.424Z,10.10
2022-11-13T07:58:58.758Z,10.10
2022-11-13T08:01:46.764Z,10.10
2022-11-13T08:04:35.713Z,10.10
2022-11-13T08:07:22.261Z,10.10
2022-11-13T08:10:09.797Z,10.10
2022-11-13T08:13:01.308Z,10.20
2022-11-13T08:15:48.605Z,10.20
2022-11-13T08:18:37.089Z,10.10
2022-11-13T08:21:23.818Z,10.20
2022-11-13T08:24:10.861Z,10.10
2022-11-13T08:26:57.951Z,10.20
2022-11-13T08:29:44.779Z,10.20
2022-11-13T08:32:31.853Z,10.20
2022-11-13T08:35:22.120Z,10.30
2022-11-13T08:38:12.000Z,10.30
2022-11-13T08:41:08.934Z,10.20
2022-11-13T08:43:56.278Z,10.20
2022-11-13T08:46:43.188Z,10.20
2022-11-13T08:49:30.013Z,10.20
2022-11-13T08:52:18.283Z,10.30
2022-11-13T08:55:05.288Z,10.40
2022-11-13T08:57:52.378Z,10.40
2022-11-13T09:00:38.978Z,10.40
2022-11-13T09:03:25.657Z,10.30
2022-11-13T09:06:12.491Z,10.30
2022-11-13T09:09:00.631Z,10.30
2022-11-13T09:11:47.279Z,10.30
2022-11-13T09:14:35.112Z,10.30
2022-11-13T09:17:21.957Z,10.30
2022-11-13T09:20:13.544Z,10.30
2022-11-13T09:23:02.794Z,10.30
2022-11-13T09:25:51.121Z,10.40
2022-11-13T09:28:38.286Z,10.40
2022-11-13T09:31:25.139Z,10.50
2022-11-13T09:34:11.993Z,10.50
2022-11-13T09:36:58.992Z,10.50
2022-11-13T09:39:45.774Z,10.50
2022-11-13T09:42:35.630Z,10.60
2022-11-13T09:45:22.826Z,10.60
2022-11-13T09:48:19.967Z,10.50
2022-11-13T09:51:12.666Z,10.50
2022-11-13T09:54:01.176Z,10.60
2022-11-13T09:56:52.245Z,10.60
2022-11-13T09:59:46.032Z,10.70
2022-11-13T10:02:46.466Z,10.80
2022-11-13T10:05:40.929Z,10.90
2022-11-13T10:08:31.342Z,10.80
2022-11-13T10:11:28.027Z,10.80
2022-11-13T10:14:20.238Z,10.70
2022-11-13T10:17:16.022Z,10.80
2022-11-13T10:20:06.785Z,10.80
2022-11-13T10:22:57.596Z,10.70
2022-11-13T10:25:46.212Z,10.60
2022-11-13T10:28:50.113Z,10.70
2022-11-13T10:31:45.730Z,10.70
2022-11-13T10:34:34.254Z,10.80
2022-11-13T10:37:31.330Z,10.90
2022-11-13T10:40:26.226Z,11.10
2022-11-13T10:43:16.722Z,11.10
2022-11-13T10:46:05.311Z,11.10
2022-11-13T10:48:52.531Z,11.10
2022-11-13T10:51:40.851Z,11.10
2022-11-13T10:54:31.055Z,11.10
2022-11-13T10:57:26.028Z,11.30
2022-11-13T11:00:24.972Z,11.20
2022-11-13T11:03:16.791Z,11.30
2022-11-13T11:06:05.613Z,11.20
2022-11-13T11:08:53.976Z,11.20
2022-11-13T11:11:58.625Z,11.20
2022-11-13T11:15:04.630Z,11.20
2022-11-13T11:17:54.170Z,11.10
2022-11-13T11:20:46.242Z,11.30
2022-11-13T11:23:40.752Z,11.20
2022-11-13T11:26:33.612Z,11.30
2022-11-13T11:29:27.755Z,11.20
2022-11-13T11:32:22.321Z,11.10
2022-11-13T11:35:16.073Z,11.10
2022-11-13T11:38:09.751Z,11.40
2022-11-13T11:41:16.268Z,11.50
2022-11-13T11:44:12.930Z,11.60
2022-11-13T11:47:00.054Z,11.60
2022-11-13T11:49:47.350Z,11.80
2022-11-13T11:52:47.005Z,11.80
2022-11-13T11:55:59.962Z,12.00
2022-11-13T11:59:05.574Z,11.80
2022-11-13T12:02:30.667Z,12.10
2022-11-13T12:05:24.855Z,12.20
2022-11-13T12:08:21.473Z,12.50
2022-11-13T12:11:15.341Z,12.50
2022-11-13T12:14:14.789Z,12.30
2022-11-13T12:17:17.758Z,12.40
2022-11-13T12:20:18.789Z,12.50
2022-11-13T12:23:24.494Z,12.70
2022-11-13T12:26:21.215Z,13.10
2022-11-13T12:29:22.590Z,13.40
2022-11-13T12:32:20.015Z,13.50
2022-11-13T12:35:11.058Z,13.20
2022-11-13T12:38:03.784Z,13.60
2022-11-13T12:40:57.010Z,13.40
2022-11-13T12:44:04.455Z,13.50
2022-11-13T12:46:53.058Z,13.30
2022-11-13T12:49:39.564Z,13.30
2022-11-13T12:52:26.423Z,13.20
2022-11-13T12:55:27.688Z,12.90
2022-11-13T12:58:21.719Z,12.70
2022-11-13T13:01:19.510Z,12.40
2022-11-13T13:04:42.721Z,12.20
2022-11-13T13:07:47.283Z,12.10
2022-11-13T13:10:47.024Z,12.00
2022-11-13T13:13:45.915Z,12.10
2022-11-13T13:16:32.717Z,12.20
2022-11-13T13:19:31.779Z,12.20
2022-11-13T13:22:27.348Z,12.00
2022-11-13T13:25:27.049Z,12.10
2022-11-13T13:28:24.085Z,12.10
2022-11-13T13:31:23.156Z,12.10
2022-11-13T13:34:23.545Z,12.00
2022-11-13T13:37:22.578Z,11.90
2022-11-13T13:40:20.945Z,11.90
2022-11-13T13:43:20.713Z,11.80
2022-11-13T13:46:14.885Z,11.80
2022-11-13T13:49:09.405Z,11.80
2022-11-13T13:51:58.534Z,11.80
2022-11-13T13:54:46.935Z,11.80
2022-11-13T13:57:34.352Z,11.80
2022-11-13T14:00:22.555Z,11.70
2022-11-13T14:03:20.505Z,11.70
2022-11-13T14:06:19.938Z,11.70
2022-11-13T14:09:10.666Z,11.60
2022-11-13T14:12:00.565Z,11.60
2022-11-13T14:14:47.507Z,11.50
2022-11-13T14:17:35.482Z,11.50
2022-11-13T14:20:23.740Z,11.40
2022-11-13T14:23:14.801Z,11.40
2022-11-13T14:26:02.453Z,11.30
2022-11-13T14:28:54.288Z,11.30
2022-11-13T14:31:41.446Z,11.30
2022-11-13T14:34:28.655Z,11.30
2022-11-13T14:37:23.944Z,11.20
2022-11-13T14:40:20.592Z,11.10
2022-11-13T14:43:09.973Z,11.00
2022-11-13T14:45:58.561Z,11.00
2022-11-13T14:48:53.836Z,10.90
2022-11-13T14:51:40.943Z,10.90
2022-11-13T14:54:46.825Z,10.80
2022-11-13T14:57:48.980Z,10.70
2022-11-13T15:00:38.070Z,10.70
2022-11-13T15:03:25.318Z,10.60
2022-11-13T15:06:16.005Z,10.60
2022-11-13T15:09:07.398Z,10.50
2022-11-13T15:11:54.236Z,10.50
2022-11-13T15:14:43.155Z,10.50
2022-11-13T15:17:29.732Z,10.40
2022-11-13T15:20:18.123Z,10.30
2022-11-13T15:23:05.043Z,10.30
2022-11-13T15:25:51.678Z,10.20
2022-11-13T15:28:38.596Z,10.20
2022-11-13T15:31:31.568Z,10.20
2022-11-13T15:34:18.603Z,10.10
2022-11-13T15:37:12.749Z,10.10
2022-11-13T15:39:59.564Z,10.00
2022-11-13T15:42:46.543Z,10.00
2022-11-13T15:45:33.556Z,9.90
2022-11-13T15:48:21.585Z,9.90
2022-11-13T15:51:17.672Z,9.90
2022-11-13T15:54:12.562Z,9.80
2022-11-13T15:56:59.104Z,9.80
2022-11-13T15:59:45.855Z,9.70
2022-11-13T16:02:32.674Z,9.70
2022-11-13T16:05:23.583Z,9.70
2022-11-13T16:08:14.431Z,9.70
2022-11-13T16:11:01.062Z,9.60
2022-11-13T16:13:48.879Z,9.60
2022-11-13T16:16:38.219Z,9.60
2022-11-13T16:19:26.142Z,9.40
2022-11-13T16:22:22.730Z,9.40
2022-11-13T16:25:12.770Z,9.40
2022-11-13T16:27:59.618Z,9.40
2022-11-13T16:30:47.319Z,9.30
2022-11-13T16:33:34.169Z,9.20
2022-11-13T16:36:23.322Z,9.20
2022-11-13T16:39:16.575Z,9.20
2022-11-13T16:42:03.431Z,9.10
2022-11-13T16:44:50.394Z,9.00
2022-11-13T16:47:37.405Z,9.00
2022-11-13T16:50:25.580Z,9.00
2022-11-13T16:53:12.482Z,8.90
2022-11-13T16:56:01.668Z,8.90
2022-11-13T16:58:48.265Z,8.80
2022-11-13T17:01:35.050Z,8.70
2022-11-13T17:04:22.232Z,8.70
2022-11-13T17:07:10.771Z,8.60
2022-11-13T17:10:24.018Z,8.60
2022-11-13T17:13:05.352Z,8.60
2022-11-13T17:15:52.210Z,8.50
2022-11-13T17:18:39.308Z,8.40
2022-11-13T17:21:27.819Z,8.40
2022-11-13T17:24:14.642Z,8.40
2022-11-13T17:27:01.667Z,8.30
2022-11-13T17:29:49.615Z,8.20
2022-11-13T17:32:36.541Z,8.20
2022-11-13T17:35:23.407Z,8.20
2022-11-13T17:38:14.506Z,8.10
2022-11-13T17:41:06.199Z,8.10
2022-11-13T17:43:55.679Z,8.10
2022-11-13T17:46:48.601Z,8.10
2022-11-13T17:49:35.554Z,8.10
2022-11-13T17:52:22.447Z,8.00
2022-11-13T17:55:11.860Z,8.00
2022-11-13T17:58:00.895Z,8.00
2022-11-13T18:00:48.171Z,8.00
2022-11-13T18:03:36.450Z,8.00
2022-11-13T18:06:23.316Z,8.00
2022-11-13T18:09:10.124Z,8.00
2022-11-13T18:11:56.638Z,8.00
2022-11-13T18:14:43.420Z,8.00
2022-11-13T18:17:30.303Z,7.90
2022-11-13T18:20:19.029Z,7.90
2022-11-13T18:23:05.630Z,7.80
2022-11-13T18:25:52.530Z,7.80
2022-11-13T18:28:41.607Z,7.80
2022-11-13T18:31:29.139Z,7.70
2022-11-13T18:34:18.049Z,7.70
2022-11-13T18:37:06.486Z,7.70
2022-11-13T18:39:53.363Z,7.70
2022-11-13T18:42:40.040Z,7.70
2022-11-13T18:45:26.935Z,7.70
2022-11-13T18:48:13.823Z,7.70
2022-11-13T18:51:02.790Z,7.70
2022-11-13T18:53:51.999Z,7.70
2022-11-13T18:56:40.654Z,7.60
2022-11-13T18:59:27.546Z,7.60
2022-11-13T19:02:14.273Z,7.60
2022-11-13T19:05:00.815Z,7.60
2022-11-13T19:07:47.611Z,7.60
2022-11-13T19:10:36.442Z,7.60
2022-11-13T19:13:22.960Z,7.60
2022-11-13T19:16:12.656Z,7.60
2022-11-13T19:19:01.288Z,7.60
2022-11-13T19:21:48.936Z,7.60
2022-11-13T19:24:35.813Z,7.50
2022-11-13T19:27:24.131Z,7.50
2022-11-13T19:30:11.342Z,7.50
2022-11-13T19:32:57.983Z,7.50
2022-11-13T19:35:44.780Z,7.50
2022-11-13T19:38:31.937Z,7.60
2022-11-13T19:41:18.682Z,7.60
2022-11-13T19:44:07.268Z,7.60
2022-11-13T19:46:53.971Z,7.50
2022-11-13T19:49:40.960Z,7.50
2022-11-13T19:52:27.795Z,7.50
2022-11-13T19:55:14.468Z,7.40
2022-11-13T19:58:02.258Z,7.40
2022-11-13T20:00:50.308Z,7.30
2022-11-13T20:03:37.177Z,7.20
2022-11-13T20:06:24.712Z,7.20
2022-11-13T20:09:11.560Z,7.10
2022-11-13T20:11:58.414Z,7.10
2022-11-13T20:14:45.213Z,7.00
2022-11-13T20:17:33.660Z,7.10
2022-11-13T20:20:20.149Z,7.10
2022-11-13T20:23:06.987Z,7.10
2022-11-13T20:25:55.530Z,7.10
2022-11-13T20:28:42.260Z,7.10
2022-11-13T20:31:29.925Z,7.10
2022-11-13T20:34:17.907Z,7.20
2022-11-13T20:37:04.733Z,7.10
2022-11-13T20:39:51.944Z,7.20
2022-11-13T20:42:38.821Z,7.20
2022-11-13T20:45:25.731Z,7.20
2022-11-13T20:48:12.558Z,7.10
2022-11-13T20:51:06.678Z,7.20
2022-11-13T20:53:53.803Z,7.10
2022-11-13T20:56:40.365Z,7.20
2022-11-13T20:59:27.594Z,7.10
2022-11-13T21:02:14.383Z,7.10
2022-11-13T21:05:01.280Z,6.90
2022-11-13T21:07:49.662Z,6.90
2022-11-13T21:10:36.291Z,6.90
2022-11-13T21:13:23.087Z,6.90
2022-11-13T21:16:10.719Z,6.90
2022-11-13T21:18:57.571Z,6.90
2022-11-13T21:21:44.419Z,6.90
2022-11-13T21:24:32.959Z,6.90
2022-11-13T21:27:19.914Z,6.80
2022-11-13T21:30:08.052Z,6.80
2022-11-13T21:32:54.857Z,6.90
2022-11-13T21:35:41.830Z,7.00
2022-11-13T21:38:29.014Z,7.10
2022-11-13T21:41:24.682Z,7.10
2022-11-13T21:44:11.969Z,7.10
2022-11-13T21:46:58.710Z,7.20
2022-11-13T21:49:45.609Z,7.10
2022-11-13T21:52:32.583Z,7.10
2022-11-13T21:55:19.560Z,7.20
2022-11-13T21:58:08.058Z,7.10
2022-11-13T22:00:55.109Z,7.10
2022-11-13T22:03:41.995Z,7.20
2022-11-13T22:06:30.993Z,7.10
2022-11-13T22:09:19.553Z,7.20
2022-11-13T22:12:06.573Z,7.20
2022-11-13T22:14:54.551Z,7.20
2022-11-13T22:17:41.786Z,7.10
2022-11-13T22:20:28.603Z,7.20
2022-11-13T22:23:15.653Z,7.20
2022-11-13T22:26:03.452Z,7.20
2022-11-13T22:28:50.480Z,7.20
2022-11-13T22:31:39.663Z,7.20
2022-11-13T22:34:26.063Z,7.20
2022-11-13T22:37:13.189Z,7.20
2022-11-13T22:40:00.203Z,7.20
2022-11-13T22:42:47.105Z,7.20
2022-11-13T22:45:34.812Z,7.30
2022-11-13T22:48:23.191Z,7.20
2022-11-13T22:51:13.307Z,7.20
2022-11-13T22:54:01.680Z,7.20
2022-11-13T22:56:48.234Z,7.20
2022-11-13T22:59:35.244Z,7.20
2022-11-13T23:02:22.284Z,7.30
2022-11-13T23:05:10.535Z,7.30
2022-11-13T23:07:57.335Z,7.20
2022-11-13T23:10:44.325Z,7.20
2022-11-13T23:13:31.049Z,7.20
2022-11-13T23:16:19.018Z,7.20
2022-11-13T23:19:06.119Z,7.20
2022-11-13T23:21:54.101Z,7.20
2022-11-13T23:24:40.853Z,7.20
2022-11-13T23:27:27.611Z,7.20
2022-11-13T23:30:15.428Z,7.20
2022-11-13T23:33:02.257Z,7.20
2022-11-13T23:35:49.270Z,7.20
2022-11-13T23:38:37.720Z,7.20
2022-11-13T23:41:24.436Z,7.20
2022-11-13T23:44:11.244Z,7.20
2022-11-13T23:46:58.119Z,7.20
2022-11-13T23:49:45.209Z,7.20
2022-11-13T23:52:32.137Z,7.20
2022-11-13T23:55:22.529Z,7.20
2022-11-13T23:58:12.731Z,7.20
